Time;durP1;ratioP1;P1;durP2;ratioP2;P2;SDS_P1;SDS_P2;PMS_P1;PMS_P2;Temp;Humidity;BMP_temperature;BMP_pressure;BME280_temperature;BME280_humidity;BME280_pressure;Samples;Min_cycle;Max_cycle;Signal;HPM_P1;HPM_P2
2020/12/02 00:01:37;;;;;;;41.47;21.35;;;3.70;99.90;;;;;;5011956;28;20120;-61
2020/12/02 00:04:10;;;;;;;32.22;18.25;;;3.70;99.90;;;;;;5029074;28;20120;-61
2020/12/02 00:06:37;;;;;;;30.60;17.10;;;3.80;99.90;;;;;;5027626;28;20036;-61
2020/12/02 00:09:10;;;;;;;31.02;18.00;;;3.80;99.90;;;;;;5012400;28;20390;-61
2020/12/02 00:11:36;;;;;;;33.70;18.75;;;3.80;99.90;;;;;;5028557;28;20049;-61
2020/12/02 00:14:06;;;;;;;34.85;17.98;;;3.80;99.90;;;;;;5028835;28;20032;-60
2020/12/02 00:16:32;;;;;;;35.53;19.08;;;3.80;99.90;;;;;;5040107;28;20040;-65
2020/12/02 00:18:59;;;;;;;32.17;17.40;;;3.90;99.90;;;;;;5111650;28;20054;-60
2020/12/02 00:21:29;;;;;;;29.92;17.48;;;3.90;99.90;;;;;;5111712;28;20182;-61
2020/12/02 00:23:55;;;;;;;35.45;18.73;;;3.80;99.90;;;;;;5110971;28;20068;-60
2020/12/02 00:26:22;;;;;;;32.63;17.08;;;3.90;99.90;;;;;;5093247;28;20126;-61
2020/12/02 00:28:48;;;;;;;29.23;17.55;;;3.80;99.90;;;;;;5092850;28;20019;-60
2020/12/02 00:31:15;;;;;;;31.25;16.05;;;3.80;99.90;;;;;;5111603;28;20085;-60
2020/12/02 00:33:41;;;;;;;30.13;17.52;;;3.90;99.90;;;;;;5111020;28;20442;-62
2020/12/02 00:36:06;;;;;;;31.20;16.90;;;3.90;99.90;;;;;;5076523;28;20052;-61
2020/12/02 00:38:33;;;;;;;28.77;16.83;;;3.90;99.90;;;;;;5111407;28;20122;-62
2020/12/02 00:40:58;;;;;;;34.25;17.35;;;3.80;99.90;;;;;;5111146;28;20059;-60
2020/12/02 00:43:27;;;;;;;29.70;17.52;;;3.80;99.90;;;;;;5089693;28;20123;-60
2020/12/02 00:46:01;;;;;;;27.10;15.00;;;3.80;99.90;;;;;;5089175;28;20035;-60
2020/12/02 00:48:29;;;;;;;30.48;16.92;;;3.90;99.90;;;;;;5090010;28;20077;-60
2020/12/02 00:50:55;;;;;;;32.47;17.52;;;3.90;99.90;;;;;;5089156;28;20044;-60
2020/12/02 00:53:24;;;;;;;35.53;16.75;;;3.80;99.90;;;;;;5089594;28;20020;-60
2020/12/02 00:55:52;;;;;;;30.60;16.00;;;3.80;99.90;;;;;;5090240;28;20024;-60
2020/12/02 00:58:52;;;;;;;25.02;14.80;;;3.80;99.90;;;;;;5089703;28;20060;-60
2020/12/02 01:01:38;;;;;;;30.70;18.42;;;3.90;99.90;;;;;;5071862;28;20101;-59
2020/12/02 01:04:16;;;;;;;31.45;17.08;;;3.80;99.90;;;;;;5070946;28;20056;-60
2020/12/02 01:06:45;;;;;;;30.00;16.60;;;3.80;99.90;;;;;;5068715;28;20063;-60
2020/12/02 01:09:13;;;;;;;31.38;17.38;;;3.80;99.90;;;;;;5069267;28;20048;-62
2020/12/02 01:11:38;;;;;;;30.67;15.93;;;3.90;99.90;;;;;;5070178;28;20033;-60
2020/12/02 01:14:08;;;;;;;30.17;16.25;;;3.90;99.90;;;;;;5070789;28;20028;-61
2020/12/02 01:16:39;;;;;;;29.10;17.42;;;3.80;99.90;;;;;;5070929;28;20089;-60
2020/12/02 01:19:19;;;;;;;27.20;16.48;;;3.80;99.90;;;;;;5073255;28;20047;-60
2020/12/02 01:21:57;;;;;;;27.25;16.30;;;3.90;99.90;;;;;;5074102;28;20035;-60
2020/12/02 01:24:28;;;;;;;29.42;16.13;;;3.90;99.90;;;;;;5074430;28;20024;-60
2020/12/02 01:27:29;;;;;;;28.38;16.52;;;3.90;99.90;;;;;;5073528;28;20024;-60
2020/12/02 01:29:55;;;;;;;30.17;18.17;;;3.80;99.90;;;;;;5080200;28;20031;-60
2020/12/02 01:32:21;;;;;;;30.00;15.73;;;3.70;99.90;;;;;;5094255;28;20028;-60
2020/12/02 01:34:50;;;;;;;27.85;16.38;;;3.70;99.90;;;;;;5092462;28;20082;-60
2020/12/02 01:37:19;;;;;;;26.92;15.90;;;3.70;99.90;;;;;;5094207;28;20031;-60
2020/12/02 01:39:53;;;;;;;27.58;15.63;;;3.70;99.90;;;;;;5092172;28;20334;-60
2020/12/02 01:42:19;;;;;;;28.88;16.02;;;3.70;99.90;;;;;;5104044;28;20066;-60
2020/12/02 01:44:46;;;;;;;31.20;18.35;;;3.60;99.90;;;;;;5114356;28;20031;-60
2020/12/02 01:47:43;;;;;;;30.30;16.70;;;3.60;99.90;;;;;;5096016;28;20123;-59
2020/12/02 01:50:19;;;;;;;27.98;16.63;;;3.60;99.90;;;;;;5096517;28;20099;-61
2020/12/02 01:53:08;;;;;;;28.67;16.20;;;3.70;99.90;;;;;;5114193;28;20115;-60
2020/12/02 01:55:42;;;;;;;27.27;15.10;;;3.70;99.90;;;;;;5114352;28;20019;-60
2020/12/02 01:58:19;;;;;;;26.73;15.27;;;3.70;99.90;;;;;;5096412;28;20055;-60
2020/12/02 02:00:53;;;;;;;24.75;15.32;;;3.70;99.90;;;;;;5095510;28;20044;-61
2020/12/02 02:03:19;;;;;;;29.45;15.02;;;3.80;99.90;;;;;;5095679;28;20032;-60
2020/12/02 02:05:53;;;;;;;28.13;16.33;;;3.70;99.90;;;;;;5095387;28;20088;-60
2020/12/02 02:08:22;;;;;;;26.65;16.58;;;3.70;99.90;;;;;;5114008;28;20090;-60
2020/12/02 02:10:52;;;;;;;30.50;15.82;;;3.70;99.90;;;;;;5113296;28;20057;-61
2020/12/02 02:13:55;;;;;;;25.88;15.95;;;3.70;99.90;;;;;;5114081;28;20039;-61
2020/12/02 02:16:28;;;;;;;25.92;15.95;;;3.70;99.90;;;;;;5113955;28;20024;-60
2020/12/02 02:18:53;;;;;;;28.23;16.23;;;3.60;99.90;;;;;;5113866;28;20102;-60
2020/12/02 02:21:32;;;;;;;31.60;16.85;;;3.60;99.90;;;;;;5095613;28;20123;-60
2020/12/02 02:23:58;;;;;;;27.05;16.35;;;3.70;99.90;;;;;;5113013;28;20080;-60
2020/12/02 02:26:30;;;;;;;26.63;16.13;;;3.70;99.90;;;;;;5095627;28;20019;-60
2020/12/02 02:29:06;;;;;;;30.90;16.02;;;3.70;99.90;;;;;;5094269;28;20028;-60
2020/12/02 02:31:37;;;;;;;26.55;15.75;;;3.70;99.90;;;;;;5113961;28;20040;-60
2020/12/02 02:34:09;;;;;;;29.90;16.67;;;3.80;99.90;;;;;;5113068;28;20460;-60
2020/12/02 02:36:35;;;;;;;23.95;15.30;;;3.80;99.90;;;;;;5095479;28;20497;-60
2020/12/02 02:39:00;;;;;;;27.67;15.30;;;3.80;99.90;;;;;;5112797;28;20035;-60
2020/12/02 02:41:28;;;;;;;27.38;16.55;;;3.70;99.90;;;;;;5113310;28;20032;-59
2020/12/02 02:43:55;;;;;;;25.23;15.35;;;3.70;99.90;;;;;;5094753;28;20023;-61
2020/12/02 02:46:21;;;;;;;29.50;15.85;;;3.70;99.90;;;;;;5095431;28;20038;-60
2020/12/02 02:48:47;;;;;;;28.80;16.10;;;3.90;99.90;;;;;;5094753;28;20023;-60
2020/12/02 02:51:13;;;;;;;28.23;16.60;;;3.80;99.90;;;;;;5113749;28;20051;-60
2020/12/02 02:53:38;;;;;;;30.48;16.52;;;3.90;99.90;;;;;;5113341;28;20023;-60
2020/12/02 02:56:04;;;;;;;27.55;15.48;;;3.80;99.90;;;;;;5112708;28;20099;-60
2020/12/02 02:58:31;;;;;;;28.20;15.45;;;3.90;99.90;;;;;;5113169;28;20028;-60
2020/12/02 03:01:01;;;;;;;26.00;15.02;;;3.80;99.90;;;;;;5097606;28;20066;-60
2020/12/02 03:03:29;;;;;;;30.15;17.25;;;3.70;99.90;;;;;;5092956;28;20036;-60
2020/12/02 03:05:59;;;;;;;27.35;14.88;;;3.70;99.90;;;;;;5092352;28;20020;-60
2020/12/02 03:08:25;;;;;;;24.67;15.85;;;3.70;99.90;;;;;;5074389;28;20446;-60
2020/12/02 03:10:53;;;;;;;27.65;17.10;;;3.70;99.90;;;;;;5073780;28;20046;-60
2020/12/02 03:13:28;;;;;;;27.85;16.10;;;3.70;99.90;;;;;;5058127;28;20057;-60
2020/12/02 03:15:54;;;;;;;24.98;15.10;;;3.70;99.90;;;;;;5073959;28;20024;-60
2020/12/02 03:18:21;;;;;;;24.65;15.07;;;3.70;99.90;;;;;;5074527;28;20115;-59
2020/12/02 03:21:00;;;;;;;27.98;16.52;;;3.80;99.90;;;;;;5069096;28;20040;-60
2020/12/02 03:23:27;;;;;;;25.88;15.93;;;3.80;99.90;;;;;;5069573;28;20032;-60
2020/12/02 03:25:53;;;;;;;26.45;15.23;;;3.80;99.90;;;;;;5068941;28;20066;-60
2020/12/02 03:28:19;;;;;;;26.58;16.15;;;3.80;99.90;;;;;;5052971;28;20025;-60
2020/12/02 03:30:45;;;;;;;26.85;15.88;;;3.70;99.90;;;;;;5081924;28;20040;-60
2020/12/02 03:33:14;;;;;;;26.58;16.25;;;3.80;99.90;;;;;;5072646;28;20021;-59
2020/12/02 03:35:40;;;;;;;26.50;16.48;;;3.70;99.90;;;;;;5089701;28;20032;-60
2020/12/02 03:38:06;;;;;;;26.65;15.63;;;3.70;99.90;;;;;;5071840;28;20039;-60
2020/12/02 03:40:32;;;;;;;24.60;14.70;;;3.80;99.90;;;;;;5088824;28;20048;-61
2020/12/02 03:42:57;;;;;;;30.10;17.00;;;3.90;99.90;;;;;;5088624;28;20520;-61
2020/12/02 03:45:23;;;;;;;30.35;16.58;;;3.90;99.90;;;;;;5072318;28;20111;-62
2020/12/02 03:47:49;;;;;;;26.55;15.45;;;3.90;99.90;;;;;;5089092;28;20021;-61
2020/12/02 03:50:15;;;;;;;23.25;14.02;;;3.80;99.90;;;;;;5089567;28;20020;-61
2020/12/02 03:52:41;;;;;;;28.40;16.05;;;3.80;99.90;;;;;;5090889;28;20127;-61
2020/12/02 03:55:07;;;;;;;25.35;14.65;;;3.80;99.90;;;;;;5091091;28;20465;-61
2020/12/02 03:57:33;;;;;;;27.40;16.73;;;3.70;99.90;;;;;;5090168;28;20048;-61
2020/12/02 04:00:00;;;;;;;26.50;17.05;;;3.70;99.90;;;;;;5090595;28;20032;-61
2020/12/02 04:02:26;;;;;;;29.70;15.18;;;3.70;99.90;;;;;;5090228;28;20131;-61
2020/12/02 04:04:51;;;;;;;28.60;16.70;;;3.90;99.90;;;;;;5090978;28;20139;-61
2020/12/02 04:07:17;;;;;;;26.23;16.33;;;3.90;99.90;;;;;;5089861;28;20023;-61
2020/12/02 04:09:42;;;;;;;28.85;15.75;;;3.90;99.90;;;;;;5089812;28;20059;-61
2020/12/02 04:12:08;;;;;;;27.85;15.85;;;3.90;99.90;;;;;;5089381;28;20056;-61
2020/12/02 04:14:34;;;;;;;27.77;16.25;;;3.80;99.90;;;;;;5091101;28;20094;-60
2020/12/02 04:16:59;;;;;;;30.88;16.92;;;3.80;99.90;;;;;;5089272;28;20353;-61
2020/12/02 04:19:25;;;;;;;27.30;15.25;;;3.80;99.90;;;;;;5089703;28;20035;-61
2020/12/02 04:21:55;;;;;;;27.95;15.02;;;3.80;99.90;;;;;;5088988;28;20085;-61
2020/12/02 04:24:20;;;;;;;27.75;15.70;;;3.80;99.90;;;;;;5090831;28;20020;-61
2020/12/02 04:26:46;;;;;;;24.98;14.43;;;3.70;99.90;;;;;;5089472;28;20024;-65
2020/12/02 04:29:12;;;;;;;28.60;15.82;;;3.80;99.90;;;;;;5091457;28;20035;-61
2020/12/02 04:31:38;;;;;;;28.20;15.40;;;3.80;99.90;;;;;;5090866;28;20028;-61
2020/12/02 04:34:03;;;;;;;28.17;15.77;;;3.80;99.90;;;;;;5089094;28;20430;-61
2020/12/02 04:36:29;;;;;;;27.27;15.30;;;3.80;99.90;;;;;;5090803;28;20127;-61
2020/12/02 04:38:55;;;;;;;28.80;16.55;;;3.80;99.90;;;;;;5090096;28;20024;-61
2020/12/02 04:41:21;;;;;;;29.05;15.60;;;3.90;99.90;;;;;;5092442;28;20046;-61
2020/12/02 04:43:49;;;;;;;28.73;15.73;;;3.90;99.90;;;;;;5111203;28;20019;-61
2020/12/02 04:46:26;;;;;;;25.10;14.70;;;3.80;99.90;;;;;;5110957;28;20023;-61
2020/12/02 04:49:01;;;;;;;25.80;14.82;;;3.80;99.90;;;;;;5110766;28;20031;-60
2020/12/02 04:51:28;;;;;;;25.77;15.60;;;3.90;99.90;;;;;;5111079;28;20031;-61
2020/12/02 04:53:57;;;;;;;26.75;14.90;;;3.80;99.90;;;;;;5091903;28;20054;-62
2020/12/02 04:56:25;;;;;;;30.77;16.48;;;3.90;99.90;;;;;;5111427;28;20066;-61
2020/12/02 04:58:53;;;;;;;28.95;15.27;;;3.90;99.90;;;;;;5092402;28;20361;-62
2020/12/02 05:01:29;;;;;;;33.05;16.70;;;4.00;99.90;;;;;;5111322;28;20061;-61
2020/12/02 05:04:01;;;;;;;27.15;15.48;;;3.90;99.90;;;;;;5092347;28;20461;-61
2020/12/02 05:06:28;;;;;;;27.20;14.88;;;3.90;99.90;;;;;;5111350;28;20042;-61
2020/12/02 05:09:07;;;;;;;30.40;16.67;;;3.90;99.90;;;;;;5109756;28;20028;-60
2020/12/02 05:11:33;;;;;;;29.80;15.38;;;3.80;99.90;;;;;;5110948;28;20036;-60
2020/12/02 05:14:01;;;;;;;28.05;14.95;;;3.90;99.90;;;;;;5092165;28;20484;-60
2020/12/02 05:16:27;;;;;;;30.73;16.75;;;3.90;99.90;;;;;;5111551;28;20027;-62
2020/12/02 05:19:02;;;;;;;29.42;17.17;;;4.00;99.90;;;;;;5110373;28;20032;-60
2020/12/02 05:21:40;;;;;;;29.77;16.90;;;4.00;99.90;;;;;;5111010;28;20039;-60
2020/12/02 05:24:11;;;;;;;27.63;15.45;;;4.00;99.90;;;;;;5091818;28;20028;-62
2020/12/02 05:26:44;;;;;;;25.08;15.32;;;3.90;99.90;;;;;;5092547;28;20057;-62
2020/12/02 05:29:22;;;;;;;30.48;15.95;;;3.90;99.90;;;;;;5110226;28;20622;-62
2020/12/02 05:31:49;;;;;;;28.70;16.98;;;3.90;99.90;;;;;;5090598;28;20028;-62
2020/12/02 05:34:18;;;;;;;27.98;16.05;;;3.90;99.90;;;;;;5090202;28;20074;-62
2020/12/02 05:36:49;;;;;;;24.88;15.10;;;3.90;99.90;;;;;;5072393;28;20138;-61
2020/12/02 05:39:50;;;;;;;31.58;16.50;;;4.00;99.90;;;;;;5089828;28;20025;-61
2020/12/02 05:42:23;;;;;;;25.73;15.95;;;3.90;99.90;;;;;;5072835;28;20401;-61
2020/12/02 05:44:55;;;;;;;28.95;16.98;;;4.00;99.90;;;;;;5090219;28;20020;-61
2020/12/02 05:47:21;;;;;;;26.02;16.05;;;3.80;99.90;;;;;;5090692;28;20028;-61
2020/12/02 05:49:54;;;;;;;26.73;16.92;;;3.80;99.90;;;;;;5090469;28;20370;-61
2020/12/02 05:52:30;;;;;;;24.80;15.30;;;3.90;99.90;;;;;;5072438;28;20457;-60
2020/12/02 05:55:03;;;;;;;31.85;14.85;;;3.90;99.90;;;;;;5071647;28;20138;-61
2020/12/02 05:57:29;;;;;;;28.33;16.08;;;4.00;99.90;;;;;;5090309;28;20028;-61
2020/12/02 05:59:56;;;;;;;29.65;16.48;;;4.10;99.90;;;;;;5077610;28;20053;-62
2020/12/02 06:02:24;;;;;;;25.08;14.43;;;4.10;99.90;;;;;;5092291;28;20141;-61
2020/12/02 06:04:52;;;;;;;31.70;17.92;;;4.00;99.90;;;;;;5093829;28;20118;-61
2020/12/02 06:07:19;;;;;;;24.38;14.85;;;4.00;99.90;;;;;;5096231;28;20038;-60
2020/12/02 06:09:47;;;;;;;25.33;15.30;;;4.00;99.90;;;;;;5113893;28;20476;-62
2020/12/02 06:12:17;;;;;;;27.15;15.10;;;4.00;99.90;;;;;;5095322;28;20040;-61
2020/12/02 06:14:42;;;;;;;25.13;14.02;;;4.10;99.90;;;;;;5095813;28;20024;-62
2020/12/02 06:17:13;;;;;;;26.08;16.42;;;4.10;99.90;;;;;;5095277;28;20020;-60
2020/12/02 06:19:39;;;;;;;25.23;15.00;;;4.00;99.90;;;;;;5114182;28;20028;-61
2020/12/02 06:22:06;;;;;;;25.38;15.70;;;3.90;99.90;;;;;;5094417;28;20122;-61
2020/12/02 06:24:42;;;;;;;21.90;14.60;;;3.70;99.90;;;;;;5094765;28;20023;-62
2020/12/02 06:27:17;;;;;;;25.63;14.90;;;3.70;99.90;;;;;;5113133;28;20019;-62
2020/12/02 06:29:55;;;;;;;24.65;14.10;;;3.40;99.90;;;;;;5113573;28;20367;-63
2020/12/02 06:32:24;;;;;;;28.23;15.40;;;3.50;99.90;;;;;;5113672;28;20131;-62
2020/12/02 06:35:06;;;;;;;516.70;82.20;;;3.50;99.90;;;;;;5078165;28;20032;-67
2020/12/02 06:37:32;;;;;;;54.38;27.70;;;5.40;99.90;;;;;;5113174;28;20047;-68
2020/12/02 06:39:59;;;;;;;29.67;16.45;;;5.20;99.90;;;;;;5067836;28;20410;-64
2020/12/02 06:42:39;;;;;;;27.15;16.00;;;4.70;99.90;;;;;;5069471;28;20532;-62
2020/12/02 06:45:08;;;;;;;25.23;15.50;;;4.40;99.90;;;;;;5069493;28;20063;-60
2020/12/02 06:47:50;;;;;;;24.58;14.50;;;4.10;99.90;;;;;;5069628;28;20025;-60
2020/12/02 06:50:23;;;;;;;29.27;15.73;;;4.10;99.90;;;;;;5069105;28;20063;-63
2020/12/02 06:52:50;;;;;;;22.10;14.10;;;4.00;99.90;;;;;;5069128;28;20056;-62
2020/12/02 06:55:27;;;;;;;22.73;14.40;;;3.90;99.90;;;;;;5069133;28;20044;-60
2020/12/02 06:57:59;;;;;;;23.20;14.40;;;3.70;99.90;;;;;;5052609;28;20056;-60
2020/12/02 07:00:28;;;;;;;24.98;14.60;;;3.70;99.90;;;;;;5068850;28;20106;-60
2020/12/02 07:02:57;;;;;;;27.23;15.85;;;3.50;99.90;;;;;;5069300;28;20098;-60
2020/12/02 07:05:32;;;;;;;23.48;14.57;;;3.50;99.90;;;;;;5069857;28;20041;-61
2020/12/02 07:08:31;;;;;;;27.63;15.63;;;3.40;99.90;;;;;;5069049;28;20029;-60
2020/12/02 07:11:17;;;;;;;28.23;15.13;;;3.30;99.90;;;;;;5069675;28;20139;-62
2020/12/02 07:13:49;;;;;;;23.10;12.77;;;3.20;99.90;;;;;;5092690;28;20477;-60
2020/12/02 07:16:33;;;;;;;23.50;14.70;;;2.90;99.90;;;;;;5090847;28;20021;-60
2020/12/02 07:19:00;;;;;;;25.83;14.52;;;2.90;99.90;;;;;;5092054;28;20461;-60
2020/12/02 07:21:30;;;;;;;27.27;13.45;;;3.00;99.90;;;;;;5091377;28;20031;-60
2020/12/02 07:23:59;;;;;;;27.13;14.70;;;3.00;99.90;;;;;;5090508;28;20060;-64
2020/12/02 07:26:26;;;;;;;25.23;13.98;;;3.00;99.90;;;;;;5090880;28;20028;-61
2020/12/02 07:29:13;;;;;;;27.45;13.68;;;3.20;99.90;;;;;;5090854;28;20122;-63
2020/12/02 07:31:39;;;;;;;26.17;14.45;;;3.00;99.90;;;;;;5088598;28;20082;-62
2020/12/02 07:34:17;;;;;;;25.58;13.82;;;3.10;99.90;;;;;;5073305;28;20062;-61
2020/12/02 07:36:44;;;;;;;29.92;15.18;;;3.00;99.90;;;;;;5071553;28;20194;-62
2020/12/02 07:39:14;;;;;;;30.23;16.75;;;2.90;99.90;;;;;;5070524;28;20044;-62
2020/12/02 07:41:55;;;;;;;28.33;15.60;;;3.00;99.90;;;;;;5069852;28;20355;-60
2020/12/02 07:44:22;;;;;;;30.15;14.77;;;3.10;99.90;;;;;;5070911;28;20039;-61
2020/12/02 07:46:49;;;;;;;27.40;14.70;;;3.20;99.90;;;;;;5069788;28;20103;-62
2020/12/02 07:49:15;;;;;;;27.00;16.80;;;3.10;99.90;;;;;;5069324;28;20030;-60
2020/12/02 07:51:49;;;;;;;31.60;16.00;;;3.00;99.90;;;;;;5071158;28;20039;-61
2020/12/02 07:54:28;;;;;;;33.95;17.90;;;2.80;99.90;;;;;;5073074;28;20490;-61
2020/12/02 07:56:55;;;;;;;32.33;17.92;;;3.10;99.90;;;;;;5073136;28;20120;-60
2020/12/02 07:59:25;;;;;;;30.42;16.65;;;2.90;99.90;;;;;;5071049;28;20043;-61
2020/12/02 08:01:51;;;;;;;28.45;16.33;;;2.80;99.90;;;;;;5069221;28;20029;-60
2020/12/02 08:04:22;;;;;;;33.13;17.65;;;3.00;99.90;;;;;;5069092;28;20029;-61
2020/12/02 08:07:12;;;;;;;28.17;15.75;;;2.90;99.90;;;;;;5071244;28;20029;-65
2020/12/02 08:09:42;;;;;;;28.40;15.95;;;2.90;99.90;;;;;;5073217;28;20085;-61
2020/12/02 08:12:26;;;;;;;28.13;16.33;;;3.10;99.90;;;;;;5071420;28;20032;-61
2020/12/02 08:15:10;;;;;;;27.60;15.68;;;2.90;99.90;;;;;;5069883;28;20028;-60
2020/12/02 08:17:40;;;;;;;29.48;15.52;;;3.00;99.90;;;;;;5070661;28;20339;-62
2020/12/02 08:20:31;;;;;;;31.17;18.25;;;3.10;99.90;;;;;;5069040;28;20339;-62
2020/12/02 08:23:19;;;;;;;31.27;15.57;;;3.40;99.90;;;;;;5069454;28;20028;-62
2020/12/02 08:25:44;;;;;;;29.20;15.93;;;3.50;99.90;;;;;;5070115;28;20477;-61
2020/12/02 08:28:16;;;;;;;31.27;15.40;;;3.60;99.90;;;;;;5069640;28;20182;-61
2020/12/02 08:30:42;;;;;;;29.95;15.73;;;3.60;99.90;;;;;;5069515;28;20032;-61
2020/12/02 08:33:10;;;;;;;26.48;15.77;;;3.70;99.90;;;;;;5069988;28;20036;-60
2020/12/02 08:35:50;;;;;;;25.33;14.70;;;3.70;99.90;;;;;;5070590;28;20052;-60
2020/12/02 08:38:24;;;;;;;28.55;15.43;;;3.70;99.90;;;;;;5068390;28;20154;-60
2020/12/02 08:40:51;;;;;;;25.15;13.82;;;3.80;99.90;;;;;;5070745;28;20119;-61
2020/12/02 08:43:29;;;;;;;26.20;15.38;;;3.90;99.90;;;;;;5068396;28;20210;-61
2020/12/02 08:45:56;;;;;;;23.02;14.38;;;3.90;99.90;;;;;;5070273;28;20020;-61
2020/12/02 08:48:23;;;;;;;31.90;17.70;;;3.90;99.90;;;;;;5068108;28;20024;-60
2020/12/02 08:50:49;;;;;;;26.50;14.68;;;3.90;99.90;;;;;;5070357;28;20031;-60
2020/12/02 08:53:22;;;;;;;29.05;15.15;;;4.00;99.90;;;;;;5068253;28;20051;-60
2020/12/02 08:55:48;;;;;;;32.92;16.05;;;4.10;99.90;;;;;;5070146;28;20584;-60
2020/12/02 08:58:13;;;;;;;29.40;15.75;;;4.30;99.90;;;;;;5069813;28;20103;-60
2020/12/02 09:00:39;;;;;;;28.27;15.40;;;4.10;99.90;;;;;;5069123;28;20429;-60
2020/12/02 09:03:05;;;;;;;27.80;15.27;;;4.20;99.90;;;;;;5069535;28;20029;-62
2020/12/02 09:05:31;;;;;;;26.38;16.48;;;4.20;99.90;;;;;;5070267;28;20028;-60
2020/12/02 09:07:57;;;;;;;27.67;15.98;;;4.20;99.90;;;;;;5070385;28;20060;-60
2020/12/02 09:10:23;;;;;;;26.42;15.20;;;4.20;99.90;;;;;;5069367;28;20127;-60
2020/12/02 09:12:49;;;;;;;28.48;16.05;;;4.20;99.90;;;;;;5068747;28;20123;-61
2020/12/02 09:15:15;;;;;;;36.25;16.98;;;4.20;99.90;;;;;;5069527;28;20032;-59
2020/12/02 09:17:40;;;;;;;26.80;16.13;;;4.30;99.90;;;;;;5068793;28;20028;-60
2020/12/02 09:20:06;;;;;;;27.58;16.75;;;4.20;99.90;;;;;;5069397;28;20063;-60
2020/12/02 09:22:32;;;;;;;27.52;15.77;;;4.20;99.90;;;;;;5068647;28;20115;-60
2020/12/02 09:24:58;;;;;;;26.52;15.65;;;4.20;99.90;;;;;;5069829;28;20071;-60
2020/12/02 09:27:24;;;;;;;28.25;16.48;;;4.30;99.90;;;;;;5069860;28;20032;-60
2020/12/02 09:29:49;;;;;;;26.27;15.63;;;4.30;99.90;;;;;;5069838;28;20330;-60
2020/12/02 09:32:15;;;;;;;29.25;17.17;;;4.20;99.90;;;;;;5069331;28;20112;-60
2020/12/02 09:34:41;;;;;;;27.90;16.10;;;4.20;99.90;;;;;;5068605;28;20029;-61
2020/12/02 09:37:10;;;;;;;27.05;16.58;;;4.20;99.90;;;;;;5069812;28;20025;-60
2020/12/02 09:39:36;;;;;;;25.55;14.93;;;4.30;99.90;;;;;;5071184;28;20060;-60
2020/12/02 09:42:28;;;;;;;28.55;16.73;;;4.40;99.90;;;;;;5071887;28;20470;-60
2020/12/02 09:45:04;;;;;;;28.35;16.27;;;4.30;99.90;;;;;;5073628;28;20489;-60
2020/12/02 09:47:30;;;;;;;29.23;16.90;;;4.30;99.90;;;;;;5073875;28;20033;-60
2020/12/02 09:49:56;;;;;;;30.67;16.45;;;4.30;99.90;;;;;;5072169;28;20024;-59
2020/12/02 09:52:42;;;;;;;32.33;16.30;;;4.30;99.90;;;;;;5073306;28;20032;-61
2020/12/02 09:55:18;;;;;;;30.00;16.65;;;4.30;99.90;;;;;;5073366;28;20024;-60
2020/12/02 09:57:44;;;;;;;26.13;15.95;;;4.30;99.90;;;;;;5080563;28;20035;-60
2020/12/02 10:00:12;;;;;;;26.65;15.80;;;4.30;99.90;;;;;;5084428;28;20445;-62
2020/12/02 10:02:56;;;;;;;28.95;16.08;;;4.40;99.90;;;;;;5093464;28;20093;-65
2020/12/02 10:05:46;;;;;;;28.15;14.63;;;4.50;99.90;;;;;;5091660;28;20028;-62
2020/12/02 10:08:11;;;;;;;26.42;14.38;;;4.50;99.90;;;;;;5091103;28;20145;-61
2020/12/02 10:10:45;;;;;;;29.98;15.38;;;4.50;99.90;;;;;;5081359;28;20055;-61
2020/12/02 10:13:41;;;;;;;26.88;15.15;;;4.50;99.90;;;;;;5079430;28;20044;-64
2020/12/02 10:16:20;;;;;;;24.80;15.13;;;4.60;99.90;;;;;;5082943;28;20033;-66
2020/12/02 10:18:54;;;;;;;31.50;15.05;;;4.60;99.90;;;;;;5090672;28;20065;-62
2020/12/02 10:21:49;;;;;;;27.92;15.52;;;4.50;99.90;;;;;;5087883;28;20028;-61
2020/12/02 10:24:21;;;;;;;28.00;15.95;;;4.60;99.90;;;;;;5067006;28;20032;-60
2020/12/02 10:27:07;;;;;;;26.70;15.25;;;4.60;99.90;;;;;;5086648;28;20036;-61
2020/12/02 10:29:50;;;;;;;25.13;14.35;;;4.50;99.90;;;;;;5083298;28;20028;-62
2020/12/02 10:32:39;;;;;;;24.02;15.77;;;4.50;99.90;;;;;;5081485;28;20043;-61
2020/12/02 10:35:05;;;;;;;28.35;14.88;;;4.50;99.90;;;;;;5081292;28;20032;-69
2020/12/02 10:37:38;;;;;;;32.95;14.80;;;5.30;99.90;;;;;;5078106;28;20511;-64
2020/12/02 10:40:05;;;;;;;25.27;14.27;;;5.40;99.90;;;;;;5084412;28;20017;-60
2020/12/02 10:42:52;;;;;;;29.67;15.48;;;5.10;99.90;;;;;;5078503;28;20145;-60
2020/12/02 10:45:21;;;;;;;30.40;16.15;;;4.90;99.90;;;;;;5069455;28;20096;-60
2020/12/02 10:48:05;;;;;;;33.95;15.75;;;4.70;99.90;;;;;;5070809;28;20036;-60
2020/12/02 10:50:34;;;;;;;27.58;15.85;;;4.60;99.90;;;;;;5069318;28;20028;-60
2020/12/02 10:53:03;;;;;;;22.38;12.77;;;4.70;99.90;;;;;;5072076;28;20027;-59
2020/12/02 10:55:32;;;;;;;32.00;17.48;;;4.70;99.90;;;;;;5071400;28;20020;-60
2020/12/02 10:58:21;;;;;;;28.42;15.25;;;4.70;99.90;;;;;;5071152;28;20433;-60
2020/12/02 11:00:53;;;;;;;24.92;15.32;;;4.70;99.90;;;;;;5085368;28;20104;-60
2020/12/02 11:03:26;;;;;;;;;;;4.60;99.90;;;;;;5090504;28;20028;-60
2020/12/02 11:06:01;;;;;;;27.88;15.20;;;4.60;99.90;;;;;;5092591;28;19904;-60
2020/12/02 11:08:36;;;;;;;25.83;14.82;;;4.60;99.90;;;;;;5092087;28;20035;-60
2020/12/02 11:11:31;;;;;;;22.70;13.55;;;4.50;99.90;;;;;;5092369;28;20461;-60
2020/12/02 11:14:00;;;;;;;26.17;14.93;;;4.50;99.90;;;;;;5092604;28;20025;-60
2020/12/02 11:16:35;;;;;;;27.05;14.95;;;4.50;99.90;;;;;;5092111;28;20031;-59
2020/12/02 11:19:28;;;;;;;28.85;15.77;;;4.50;99.90;;;;;;5092784;28;20040;-61
2020/12/02 11:22:13;;;;;;;26.33;14.70;;;4.50;99.90;;;;;;5091267;28;20024;-61
2020/12/02 11:24:51;;;;;;;24.08;13.82;;;4.50;99.90;;;;;;5092199;28;20059;-61
2020/12/02 11:27:17;;;;;;;24.35;14.43;;;4.70;99.90;;;;;;5090350;28;20035;-60
2020/12/02 11:29:42;;;;;;;24.50;14.95;;;4.70;99.90;;;;;;5086794;28;20013;-61
2020/12/02 11:32:48;;;;;;;24.35;14.18;;;4.70;99.90;;;;;;5070811;28;20036;-67
2020/12/02 11:35:41;;;;;;;39.03;14.65;;;4.70;99.90;;;;;;5070281;28;20021;-61
2020/12/02 11:38:27;;;;;;;24.75;14.35;;;4.70;99.90;;;;;;5070260;28;20115;-60
2020/12/02 11:41:10;;;;;;;27.80;14.77;;;4.80;99.90;;;;;;5071673;28;20033;-60
2020/12/02 11:43:42;;;;;;;37.63;14.48;;;4.80;99.90;;;;;;5070348;28;20189;-59
2020/12/02 11:46:12;;;;;;;29.15;15.60;;;4.70;99.90;;;;;;5070238;28;20028;-60
2020/12/02 11:49:00;;;;;;;25.08;14.20;;;4.80;99.90;;;;;;5069972;28;20033;-60
2020/12/02 11:51:37;;;;;;;25.10;13.52;;;4.80;99.90;;;;;;5069696;28;20377;-60
2020/12/02 11:54:13;;;;;;;27.00;14.80;;;4.80;99.90;;;;;;5069796;28;20036;-60
2020/12/02 11:56:41;;;;;;;30.70;16.38;;;4.80;99.90;;;;;;5070109;28;20025;-61
2020/12/02 11:59:16;;;;;;;30.33;14.45;;;4.80;99.90;;;;;;5069606;28;20028;-59
2020/12/02 12:02:17;;;;;;;29.08;15.52;;;4.80;99.90;;;;;;5070593;28;20496;-59
2020/12/02 12:05:02;;;;;;;31.90;16.20;;;4.80;99.90;;;;;;5069620;28;20029;-60
2020/12/02 12:07:46;;;;;;;23.55;13.38;;;4.70;99.90;;;;;;5069127;28;20746;-60
2020/12/02 12:10:33;;;;;;;24.88;14.13;;;4.70;99.90;;;;;;5070045;28;20090;-60
2020/12/02 12:13:26;;;;;;;29.80;14.20;;;4.70;99.90;;;;;;5070217;28;20520;-60
2020/12/02 12:15:58;;;;;;;27.38;13.82;;;4.70;99.90;;;;;;5071148;28;20028;-60
2020/12/02 12:18:39;;;;;;;27.73;13.82;;;4.70;99.90;;;;;;5068870;28;20123;-59
2020/12/02 12:21:32;;;;;;;33.20;17.35;;;4.60;99.90;;;;;;5068955;28;20126;-60
2020/12/02 12:24:08;;;;;;;34.65;15.85;;;4.70;99.90;;;;;;5069101;28;20489;-60
2020/12/02 12:26:43;;;;;;;26.98;14.15;;;4.70;99.90;;;;;;5069846;28;20074;-60
2020/12/02 12:29:11;;;;;;;29.88;15.98;;;4.70;99.90;;;;;;5069114;28;20098;-59
2020/12/02 12:31:52;;;;;;;29.15;14.95;;;4.70;99.90;;;;;;5069216;28;20173;-61
2020/12/02 12:34:31;;;;;;;27.67;14.63;;;4.70;99.90;;;;;;5068561;28;20056;-60
2020/12/02 12:37:02;;;;;;;25.92;15.23;;;4.60;99.90;;;;;;5069413;28;20028;-60
2020/12/02 12:39:37;;;;;;;28.95;16.42;;;4.60;99.90;;;;;;5069001;28;20484;-61
2020/12/02 12:42:03;;;;;;;25.88;14.50;;;4.50;99.90;;;;;;5077644;28;20059;-59
2020/12/02 12:44:33;;;;;;;25.70;16.35;;;4.70;99.90;;;;;;5071998;28;20024;-60
2020/12/02 12:47:17;;;;;;;24.77;15.32;;;4.70;99.90;;;;;;5072507;28;20115;-60
2020/12/02 12:49:43;;;;;;;31.05;16.38;;;4.70;99.90;;;;;;5090933;28;20020;-60
2020/12/02 12:52:14;;;;;;;28.90;15.07;;;4.70;99.90;;;;;;5072416;28;20069;-60
2020/12/02 12:54:41;;;;;;;27.38;15.85;;;4.70;99.90;;;;;;5090972;28;20021;-60
2020/12/02 12:57:13;;;;;;;27.95;14.48;;;4.60;99.90;;;;;;5072178;28;20073;-60
2020/12/02 12:59:39;;;;;;;27.35;16.08;;;4.60;99.90;;;;;;5076183;28;20024;-60
2020/12/02 13:02:07;;;;;;;30.67;16.02;;;4.70;99.90;;;;;;5110364;28;20080;-61
2020/12/02 13:04:34;;;;;;;28.42;16.27;;;4.70;99.90;;;;;;5110042;28;20031;-61